createdAt,value
2023-01-28T00:00:42.816Z,1.10
2023-01-28T00:06:18.830Z,0.60
2023-01-28T00:11:48.753Z,0.65
2023-01-28T00:17:21.317Z,4.80
2023-01-28T00:22:47.594Z,1.45
2023-01-28T00:28:24.525Z,0.80
2023-01-28T00:33:51.716Z,3.00
2023-01-28T00:39:29.267Z,0.40
2023-01-28T00:44:58.487Z,0.45
2023-01-28T00:50:39.404Z,1.05
2023-01-28T00:56:12.467Z,1.35
2023-01-28T01:01:43.704Z,1.05
2023-01-28T01:07:15.659Z,1.95
2023-01-28T01:12:42.527Z,4.00
2023-01-28T01:18:18.695Z,0.82
2023-01-28T01:23:45.658Z,2.15
2023-01-28T01:29:22.400Z,1.27
2023-01-28T01:34:52.127Z,1.67
2023-01-28T01:40:27.605Z,1.10
2023-01-28T01:45:55.575Z,1.77
2023-01-28T01:51:33.672Z,1.92
2023-01-28T01:57:04.846Z,1.38
2023-01-28T02:02:37.793Z,1.80
2023-01-28T02:08:28.484Z,7.57
2023-01-28T02:14:03.391Z,2.72
2023-01-28T02:19:30.494Z,6.28
2023-01-28T02:25:34.527Z,2.88
2023-01-28T02:31:06.205Z,2.17
2023-01-28T02:36:44.097Z,1.08
2023-01-28T02:42:13.103Z,1.77
2023-01-28T02:47:58.205Z,1.30
2023-01-28T02:53:46.389Z,3.10
2023-01-28T02:59:42.179Z,2.95
2023-01-28T03:05:23.635Z,2.15
2023-01-28T03:10:50.469Z,3.58
2023-01-28T03:16:34.473Z,1.15
2023-01-28T03:22:16.274Z,1.60
2023-01-28T03:28:04.629Z,5.75
2023-01-28T03:33:42.725Z,4.57
2023-01-28T03:39:19.376Z,6.05
2023-01-28T03:44:55.636Z,3.47
2023-01-28T03:50:28.208Z,3.63
2023-01-28T03:55:57.477Z,1.83
2023-01-28T04:01:36.438Z,2.70
2023-01-28T04:07:09.470Z,3.80
2023-01-28T04:12:39.523Z,4.90
2023-01-28T04:18:12.319Z,10.77
2023-01-28T04:23:38.448Z,5.22
2023-01-28T04:29:13.435Z,3.88
2023-01-28T04:34:39.677Z,6.90
2023-01-28T04:40:11.756Z,4.85
2023-01-28T04:45:39.946Z,3.83
2023-01-28T04:51:09.482Z,6.85
2023-01-28T04:56:36.295Z,2.33
2023-01-28T05:02:16.444Z,5.03
2023-01-28T05:07:44.204Z,8.38
2023-01-28T05:13:05.540Z,7.47
2023-01-28T05:18:35.543Z,13.07
2023-01-28T05:23:55.413Z,7.43
2023-01-28T05:29:22.402Z,6.05
2023-01-28T05:34:48.967Z,5.53
2023-01-28T05:40:19.054Z,3.03
2023-01-28T05:45:41.989Z,1.70
2023-01-28T05:51:16.668Z,5.68
2023-01-28T05:56:40.039Z,4.05
2023-01-28T06:02:19.474Z,4.40
2023-01-28T06:07:59.806Z,6.72
2023-01-28T06:13:26.394Z,3.25
2023-01-28T06:18:59.431Z,1.60
2023-01-28T06:24:27.369Z,2.50
2023-01-28T06:29:59.001Z,1.15
2023-01-28T06:35:25.420Z,2.85
2023-01-28T06:41:05.292Z,7.20
2023-01-28T06:46:30.701Z,1.48
2023-01-28T06:51:58.529Z,1.15
2023-01-28T06:57:22.666Z,1.92
2023-01-28T07:02:58.479Z,2.10
2023-01-28T07:08:34.626Z,2.33
2023-01-28T07:14:11.140Z,1.90
2023-01-28T07:19:35.295Z,2.88
2023-01-28T07:25:07.834Z,1.73
2023-01-28T07:30:38.069Z,9.27
2023-01-28T07:36:10.085Z,6.72
2023-01-28T07:41:32.108Z,5.47
2023-01-28T07:47:06.502Z,1.50
2023-01-28T07:52:31.564Z,2.65
2023-01-28T07:58:05.032Z,5.18
2023-01-28T08:03:33.091Z,4.13
2023-01-28T08:09:09.759Z,4.53
2023-01-28T08:14:41.016Z,3.13
2023-01-28T08:20:10.354Z,5.18
2023-01-28T08:25:39.689Z,6.25
2023-01-28T08:36:33.343Z,5.68
2023-01-28T08:41:53.223Z,4.43
2023-01-28T08:47:19.887Z,4.32
2023-01-28T08:52:47.901Z,4.90
2023-01-28T08:58:21.095Z,5.50
2023-01-28T09:03:47.238Z,5.28
2023-01-28T09:09:30.589Z,4.50
2023-01-28T09:15:02.363Z,6.47
2023-01-28T09:20:26.890Z,12.23
2023-01-28T09:26:02.529Z,3.63
2023-01-28T09:31:30.190Z,2.08
2023-01-28T09:36:59.957Z,8.02
2023-01-28T09:42:50.511Z,6.35
2023-01-28T09:48:27.175Z,5.47
2023-01-28T09:53:50.027Z,4.38
2023-01-28T09:59:28.136Z,8.48
2023-01-28T10:05:01.121Z,7.28
2023-01-28T10:10:30.169Z,2.55
2023-01-28T10:16:08.183Z,3.65
2023-01-28T10:21:38.189Z,6.63
2023-01-28T10:26:59.216Z,10.27
2023-01-28T10:32:37.205Z,2.28
2023-01-28T10:37:58.271Z,1.85
2023-01-28T10:43:25.095Z,5.13
2023-01-28T10:48:49.112Z,3.45
2023-01-28T10:54:29.163Z,3.28
2023-01-28T10:59:50.194Z,5.25
2023-01-28T11:05:35.165Z,2.85
2023-01-28T11:11:02.072Z,5.82
2023-01-28T11:16:24.100Z,4.57
2023-01-28T11:22:00.117Z,3.42
2023-01-28T11:27:32.096Z,5.65
2023-01-28T11:33:10.143Z,1.38
2023-01-28T11:38:40.143Z,2.72
2023-01-28T11:44:06.104Z,6.38
2023-01-28T11:49:30.082Z,8.88
2023-01-28T11:55:06.056Z,10.45
2023-01-28T12:00:45.064Z,8.13
2023-01-28T12:06:39.034Z,4.63
2023-01-28T12:12:22.059Z,4.57
2023-01-28T12:17:48.110Z,5.70
2023-01-28T12:23:33.292Z,8.73
2023-01-28T12:29:06.105Z,9.60
2023-01-28T12:35:07.202Z,3.95
2023-01-28T12:40:43.802Z,5.07
2023-01-28T12:46:23.951Z,4.83
2023-01-28T12:51:52.575Z,8.30
2023-01-28T12:57:38.776Z,3.53
2023-01-28T13:03:10.311Z,8.77
2023-01-28T13:08:50.072Z,12.20
2023-01-28T13:14:22.861Z,12.95
2023-01-28T13:19:57.296Z,10.73
2023-01-28T13:25:39.826Z,2.37
2023-01-28T13:31:11.508Z,1.20
2023-01-28T13:36:47.674Z,2.10
2023-01-28T13:42:15.611Z,10.40
2023-01-28T13:47:50.123Z,14.00
2023-01-28T13:53:23.195Z,7.87
2023-01-28T13:59:14.383Z,5.93
2023-01-28T14:04:53.275Z,8.30
2023-01-28T14:10:34.721Z,2.20
2023-01-28T14:16:21.202Z,1.77
2023-01-28T14:21:47.711Z,2.03
2023-01-28T14:27:16.922Z,6.83
2023-01-28T14:32:47.760Z,5.03
2023-01-28T14:38:10.158Z,2.60
2023-01-28T14:43:39.260Z,2.67
2023-01-28T14:49:05.069Z,2.40
2023-01-28T15:00:09.406Z,1.17
2023-01-28T15:05:47.381Z,0.67
2023-01-28T15:11:18.485Z,3.00
2023-01-28T15:16:44.351Z,2.13
2023-01-28T15:22:15.222Z,2.17
2023-01-28T15:27:35.896Z,2.03
2023-01-28T15:33:13.315Z,4.23
2023-01-28T15:38:33.209Z,6.33
2023-01-28T15:44:02.691Z,2.63
2023-01-28T15:49:32.315Z,3.13
2023-01-28T15:55:02.287Z,1.80
2023-01-28T16:00:33.285Z,3.57
2023-01-28T16:06:13.965Z,2.37
2023-01-28T16:11:42.842Z,1.80
2023-01-28T16:17:13.250Z,6.13
2023-01-28T16:22:52.550Z,13.63
2023-01-28T16:28:37.005Z,4.80
2023-01-28T16:34:04.554Z,3.00
2023-01-28T16:39:27.987Z,3.33
2023-01-28T16:44:55.948Z,6.00
2023-01-28T16:50:21.599Z,4.88
2023-01-28T16:55:53.397Z,3.95
2023-01-28T17:01:14.019Z,3.47
2023-01-28T17:06:43.626Z,6.00
2023-01-28T17:12:07.897Z,8.07
2023-01-28T17:17:36.604Z,6.32
2023-01-28T17:22:59.538Z,6.43
2023-01-28T17:28:39.840Z,6.85
2023-01-28T17:34:11.405Z,10.00
2023-01-28T17:39:35.520Z,5.53
2023-01-28T17:45:10.704Z,12.05
2023-01-28T17:50:34.014Z,16.25
2023-01-28T17:56:04.871Z,13.63
2023-01-28T18:01:29.002Z,19.25
2023-01-28T18:06:57.415Z,15.25
2023-01-28T18:12:19.900Z,9.55
2023-01-28T18:17:52.240Z,6.15
2023-01-28T18:23:13.092Z,9.05
2023-01-28T18:28:47.181Z,10.25
2023-01-28T18:34:18.235Z,7.32
2023-01-28T18:39:39.291Z,11.75
2023-01-28T18:45:06.942Z,15.63
2023-01-28T18:50:29.893Z,14.13
2023-01-28T18:55:56.132Z,11.80
2023-01-28T19:01:15.819Z,11.32
2023-01-28T19:06:45.791Z,10.68
2023-01-28T19:12:05.848Z,13.77
2023-01-28T19:17:33.075Z,12.55
2023-01-28T19:22:58.855Z,10.10
2023-01-28T19:28:31.797Z,8.68
2023-01-28T19:33:59.440Z,7.07
2023-01-28T19:39:26.614Z,7.00
2023-01-28T19:44:52.933Z,11.82
2023-01-28T19:50:12.826Z,5.75
2023-01-28T19:55:41.767Z,8.55
2023-01-28T20:01:01.721Z,9.90
2023-01-28T20:06:29.452Z,15.77
2023-01-28T20:11:55.165Z,7.30
2023-01-28T20:17:21.866Z,7.72
2023-01-28T20:22:46.011Z,7.65
2023-01-28T20:28:18.277Z,6.57
2023-01-28T20:33:41.773Z,9.73
2023-01-28T20:39:11.433Z,14.07
2023-01-28T20:44:33.810Z,11.05
2023-01-28T20:49:59.723Z,6.20
2023-01-28T20:55:19.795Z,5.93
2023-01-28T21:00:54.400Z,4.97
2023-01-28T21:06:14.741Z,4.90
2023-01-28T21:11:40.768Z,5.13
2023-01-28T21:17:02.831Z,8.88
2023-01-28T21:22:28.856Z,9.43
2023-01-28T21:27:48.792Z,6.13
2023-01-28T21:33:17.763Z,10.13
2023-01-28T21:38:37.700Z,9.23
2023-01-28T21:44:05.714Z,9.98
2023-01-28T21:49:28.822Z,9.52
2023-01-28T21:54:54.699Z,9.63
